createdAt,value
2023-03-02T00:00:34.860Z,87.86
2023-03-02T00:02:40.715Z,87.81
2023-03-02T00:04:47.758Z,87.80
2023-03-02T00:06:51.019Z,87.44
2023-03-02T00:08:53.934Z,87.78
2023-03-02T00:10:57.622Z,88.60
2023-03-02T00:13:00.586Z,88.20
2023-03-02T00:15:05.186Z,88.50
2023-03-02T00:17:08.344Z,88.55
2023-03-02T00:19:11.000Z,88.92
2023-03-02T00:21:13.697Z,88.72
2023-03-02T00:23:16.884Z,89.50
2023-03-02T00:25:20.093Z,89.78
2023-03-02T00:27:23.463Z,90.15
2023-03-02T00:29:26.268Z,89.89
2023-03-02T00:31:30.532Z,89.83
2023-03-02T00:33:33.504Z,90.47
2023-03-02T00:35:39.016Z,90.28
2023-03-02T00:37:41.816Z,89.96
2023-03-02T00:39:44.622Z,90.25
2023-03-02T00:41:48.648Z,91.17
2023-03-02T00:43:51.818Z,91.38
2023-03-02T00:45:54.784Z,91.39
2023-03-02T00:47:58.800Z,91.78
2023-03-02T00:50:02.093Z,91.90
2023-03-02T00:52:04.942Z,92.73
2023-03-02T00:54:07.645Z,93.26
2023-03-02T00:56:10.512Z,93.19
2023-03-02T00:58:13.203Z,93.56
2023-03-02T01:00:16.566Z,94.20
2023-03-02T01:02:21.525Z,94.06
2023-03-02T01:04:29.637Z,94.71
2023-03-02T01:06:32.730Z,94.77
2023-03-02T01:08:37.802Z,95.11
2023-03-02T01:10:40.899Z,95.24
2023-03-02T01:12:43.640Z,95.29
2023-03-02T01:14:48.412Z,95.40
2023-03-02T01:16:51.318Z,95.68
2023-03-02T01:18:54.058Z,95.88
2023-03-02T01:21:03.832Z,96.05
2023-03-02T01:23:06.702Z,96.06
2023-03-02T01:25:09.624Z,95.93
2023-03-02T01:27:12.736Z,96.12
2023-03-02T01:29:15.488Z,96.24
2023-03-02T01:31:18.140Z,96.42
2023-03-02T01:33:21.363Z,96.22
2023-03-02T01:35:24.140Z,96.49
2023-03-02T01:37:28.246Z,96.88
2023-03-02T01:39:33.904Z,97.07
2023-03-02T01:41:36.600Z,97.44
2023-03-02T01:43:39.901Z,97.48
2023-03-02T01:45:51.721Z,97.69
2023-03-02T01:47:54.610Z,97.95
2023-03-02T01:50:01.493Z,98.20
2023-03-02T01:52:04.542Z,98.57
2023-03-02T01:54:17.129Z,98.63
2023-03-02T01:56:25.041Z,98.42
2023-03-02T01:58:29.777Z,99.01
2023-03-02T02:00:36.406Z,98.92
2023-03-02T02:02:41.988Z,99.45
2023-03-02T02:04:48.330Z,99.13
2023-03-02T02:06:56.686Z,99.63
2023-03-02T02:09:02.253Z,99.81
2023-03-02T02:11:07.011Z,99.89
2023-03-02T02:13:11.596Z,100.00
2023-03-02T02:15:14.327Z,100.00
2023-03-02T02:17:18.659Z,100.00
2023-03-02T02:19:36.420Z,100.00
2023-03-02T02:21:39.169Z,100.00
2023-03-02T02:23:50.273Z,100.00
2023-03-02T02:26:11.504Z,100.00
2023-03-02T02:28:19.075Z,100.00
2023-03-02T02:30:23.080Z,100.00
2023-03-02T02:32:28.153Z,100.00
2023-03-02T02:34:35.555Z,100.00
2023-03-02T02:36:45.097Z,100.00
2023-03-02T02:38:51.080Z,100.00
2023-03-02T02:40:57.372Z,100.00
2023-03-02T02:43:01.620Z,100.00
2023-03-02T02:45:07.891Z,100.00
2023-03-02T02:47:18.291Z,100.00
2023-03-02T02:49:30.383Z,100.00
2023-03-02T02:51:34.418Z,100.00
2023-03-02T02:53:43.769Z,100.00
2023-03-02T02:55:48.325Z,100.00
2023-03-02T02:57:52.832Z,100.00
2023-03-02T02:59:59.749Z,100.00
2023-03-02T03:02:02.554Z,100.00
2023-03-02T03:04:07.216Z,100.00
2023-03-02T03:06:17.776Z,100.00
2023-03-02T03:08:59.056Z,100.00
2023-03-02T03:11:02.438Z,100.00
2023-03-02T03:13:05.323Z,100.00
2023-03-02T03:15:10.534Z,100.00
2023-03-02T03:17:13.927Z,100.00
2023-03-02T03:19:21.338Z,100.00
2023-03-02T03:21:24.282Z,100.00
2023-03-02T03:23:27.082Z,100.00
2023-03-02T03:25:29.776Z,100.00
2023-03-02T03:27:32.695Z,100.00
2023-03-02T03:29:37.070Z,100.00
2023-03-02T03:31:41.694Z,100.00
2023-03-02T03:33:44.722Z,100.00
2023-03-02T03:35:47.481Z,100.00
2023-03-02T03:37:51.737Z,100.00
2023-03-02T03:39:54.620Z,100.00
2023-03-02T03:41:57.471Z,100.00
2023-03-02T03:44:00.165Z,100.00
2023-03-02T03:46:02.899Z,100.00
2023-03-02T03:48:07.541Z,100.00
2023-03-02T03:50:11.393Z,100.00
2023-03-02T03:52:14.275Z,100.00
2023-03-02T03:54:17.071Z,100.00
2023-03-02T03:56:19.792Z,100.00
2023-03-02T03:58:22.521Z,100.00
2023-03-02T04:00:25.423Z,100.00
2023-03-02T04:02:28.129Z,100.00
2023-03-02T04:04:34.285Z,100.00
2023-03-02T04:06:37.117Z,100.00
2023-03-02T04:08:39.943Z,100.00
2023-03-02T04:10:43.062Z,100.00
2023-03-02T04:12:46.035Z,100.00
2023-03-02T04:14:48.783Z,100.00
2023-03-02T04:16:51.935Z,100.00
2023-03-02T04:18:54.795Z,100.00
2023-03-02T04:20:58.860Z,100.00
2023-03-02T04:27:24.631Z,100.00
2023-03-02T04:29:27.324Z,100.00
2023-03-02T04:31:31.299Z,100.00
2023-03-02T04:33:34.313Z,100.00
2023-03-02T04:35:37.047Z,100.00
2023-03-02T04:37:42.071Z,100.00
2023-03-02T04:39:51.249Z,100.00
2023-03-02T04:41:55.706Z,100.00
2023-03-02T04:43:58.500Z,100.00
2023-03-02T04:46:03.091Z,100.00
2023-03-02T04:48:06.368Z,100.00
2023-03-02T04:50:11.265Z,100.00
2023-03-02T04:52:16.934Z,100.00
2023-03-02T04:54:24.575Z,100.00
2023-03-02T04:56:27.659Z,100.00
2023-03-02T04:58:30.265Z,100.00
2023-03-02T05:00:33.978Z,100.00
2023-03-02T05:02:37.564Z,100.00
2023-03-02T05:04:42.299Z,100.00
2023-03-02T05:06:45.238Z,100.00
2023-03-02T05:08:47.908Z,100.00
2023-03-02T05:10:51.931Z,100.00
2023-03-02T05:13:01.631Z,100.00
2023-03-02T05:15:04.441Z,100.00
2023-03-02T05:17:07.025Z,100.00
2023-03-02T05:19:12.505Z,100.00
2023-03-02T05:21:16.664Z,100.00
2023-03-02T05:23:25.709Z,100.00
2023-03-02T05:25:31.329Z,100.00
2023-03-02T05:27:36.813Z,100.00
2023-03-02T05:29:39.476Z,100.00
2023-03-02T05:31:44.733Z,100.00
2023-03-02T05:33:47.730Z,100.00
2023-03-02T05:35:50.405Z,100.00
2023-03-02T05:37:53.042Z,100.00
2023-03-02T05:39:55.685Z,100.00
2023-03-02T05:42:00.123Z,100.00
2023-03-02T05:44:04.664Z,100.00
2023-03-02T05:46:07.628Z,100.00
2023-03-02T05:48:13.004Z,100.00
2023-03-02T05:50:16.031Z,100.00
2023-03-02T05:52:18.621Z,100.00
2023-03-02T05:54:21.260Z,100.00
2023-03-02T05:56:23.840Z,100.00
2023-03-02T05:58:26.461Z,100.00
2023-03-02T06:00:30.468Z,100.00
2023-03-02T06:02:33.167Z,100.00
2023-03-02T06:04:42.879Z,100.00
2023-03-02T06:06:45.552Z,100.00
2023-03-02T06:08:48.259Z,100.00
2023-03-02T06:10:51.599Z,100.00
2023-03-02T06:12:54.371Z,100.00
2023-03-02T06:14:56.987Z,100.00
2023-03-02T06:17:01.244Z,100.00
2023-03-02T06:19:04.327Z,100.00
2023-03-02T06:21:07.355Z,100.00
2023-03-02T06:23:11.342Z,100.00
2023-03-02T06:25:15.965Z,100.00
2023-03-02T06:27:18.648Z,100.00
2023-03-02T06:29:21.525Z,100.00
2023-03-02T06:31:24.134Z,100.00
2023-03-02T06:33:28.162Z,100.00
2023-03-02T06:35:30.909Z,100.00
2023-03-02T06:37:33.845Z,100.00
2023-03-02T06:39:36.517Z,100.00
2023-03-02T06:41:39.154Z,100.00
2023-03-02T06:43:41.876Z,100.00
2023-03-02T06:45:44.558Z,100.00
2023-03-02T06:47:47.198Z,100.00
2023-03-02T06:49:51.143Z,100.00
2023-03-02T06:51:53.729Z,100.00
2023-03-02T06:53:56.376Z,100.00
2023-03-02T06:55:59.058Z,100.00
2023-03-02T06:58:01.690Z,100.00
2023-03-02T07:00:10.020Z,100.00
2023-03-02T07:02:12.979Z,100.00
2023-03-02T07:04:15.577Z,100.00
2023-03-02T07:06:19.559Z,100.00
2023-03-02T07:08:22.198Z,100.00
2023-03-02T07:10:24.783Z,100.00
2023-03-02T07:12:27.377Z,100.00
2023-03-02T07:14:30.007Z,100.00
2023-03-02T07:16:35.077Z,100.00
2023-03-02T07:18:37.860Z,100.00
2023-03-02T07:20:40.546Z,100.00
2023-03-02T07:22:45.494Z,100.00
2023-03-02T07:24:48.285Z,100.00
2023-03-02T07:26:50.914Z,100.00
2023-03-02T07:28:53.490Z,100.00
2023-03-02T07:30:56.425Z,100.00
2023-03-02T07:32:59.182Z,100.00
2023-03-02T07:35:01.975Z,100.00
2023-03-02T07:37:04.725Z,100.00
2023-03-02T07:39:08.729Z,100.00
2023-03-02T07:41:12.307Z,100.00
2023-03-02T07:43:15.028Z,100.00
2023-03-02T07:45:20.199Z,100.00
2023-03-02T07:47:22.888Z,100.00
2023-03-02T07:49:25.478Z,100.00
2023-03-02T07:51:28.213Z,100.00
2023-03-02T07:53:31.021Z,100.00
2023-03-02T07:55:35.059Z,100.00
2023-03-02T07:57:37.986Z,100.00
2023-03-02T07:59:40.599Z,100.00
2023-03-02T08:01:43.272Z,100.00
2023-03-02T08:03:45.935Z,100.00
2023-03-02T08:05:48.534Z,99.95
2023-03-02T08:07:51.316Z,100.00
2023-03-02T08:09:53.996Z,100.00
2023-03-02T08:11:58.001Z,99.96
2023-03-02T08:14:01.590Z,99.93
2023-03-02T08:16:06.852Z,100.00
2023-03-02T08:18:09.516Z,99.69
2023-03-02T08:20:12.824Z,99.79
2023-03-02T08:22:15.468Z,100.00
2023-03-02T08:24:18.127Z,99.77
2023-03-02T08:26:21.658Z,98.89
2023-03-02T08:28:25.604Z,99.12
2023-03-02T08:30:28.302Z,98.87
2023-03-02T08:32:30.970Z,98.00
2023-03-02T08:34:33.570Z,97.75
2023-03-02T08:36:36.237Z,97.17
2023-03-02T08:38:38.913Z,96.87
2023-03-02T08:40:41.592Z,96.07
2023-03-02T08:42:44.253Z,96.18
2023-03-02T08:44:48.252Z,96.43
2023-03-02T08:46:51.507Z,94.20
2023-03-02T08:48:54.164Z,94.26
2023-03-02T08:50:58.164Z,92.66
2023-03-02T08:53:00.831Z,92.81
2023-03-02T08:55:04.267Z,92.33
2023-03-02T08:57:11.735Z,91.83
2023-03-02T08:59:14.642Z,91.34
2023-03-02T09:01:21.490Z,92.14
2023-03-02T09:03:24.127Z,89.88
2023-03-02T09:05:26.718Z,88.69
2023-03-02T09:07:30.760Z,86.57
2023-03-02T09:09:33.417Z,86.40
2023-03-02T09:11:36.234Z,88.23
2023-03-02T09:13:39.060Z,88.57
2023-03-02T09:15:41.705Z,87.81
2023-03-02T09:17:45.758Z,88.20
2023-03-02T09:19:48.595Z,84.97
2023-03-02T09:21:51.336Z,85.43
2023-03-02T09:23:57.900Z,85.25
2023-03-02T09:26:00.704Z,85.41
2023-03-02T09:28:03.297Z,84.90
2023-03-02T09:30:07.058Z,82.43
2023-03-02T09:32:09.744Z,85.03
2023-03-02T09:34:13.755Z,85.37
2023-03-02T09:36:23.127Z,85.17
2023-03-02T09:38:26.003Z,80.29
2023-03-02T09:40:29.530Z,80.71
2023-03-02T09:42:58.008Z,78.18
2023-03-02T09:45:19.035Z,76.91
2023-03-02T09:47:35.406Z,77.68
2023-03-02T09:49:53.714Z,77.18
2023-03-02T09:52:09.102Z,74.74
2023-03-02T09:54:14.255Z,76.13
2023-03-02T09:56:19.468Z,76.63
2023-03-02T09:58:25.576Z,77.67
2023-03-02T10:00:32.754Z,77.18
2023-03-02T10:02:39.013Z,78.91
2023-03-02T10:04:47.896Z,75.91
2023-03-02T10:06:56.846Z,75.29
2023-03-02T10:08:59.602Z,72.70
2023-03-02T10:11:10.374Z,74.58
2023-03-02T10:13:23.237Z,76.96
2023-03-02T10:15:36.694Z,77.92
2023-03-02T10:17:54.218Z,78.16
2023-03-02T10:20:04.067Z,77.44
2023-03-02T10:22:13.288Z,75.66
2023-03-02T10:24:25.494Z,76.26
2023-03-02T10:26:39.584Z,77.92
2023-03-02T10:28:49.337Z,78.38
2023-03-02T10:30:58.906Z,80.62
2023-03-02T10:33:10.614Z,79.20
2023-03-02T10:35:17.834Z,79.98
2023-03-02T10:37:24.957Z,79.65
2023-03-02T10:39:27.656Z,79.34
2023-03-02T10:41:33.972Z,79.31
2023-03-02T10:43:41.327Z,79.21
2023-03-02T10:45:43.933Z,78.46
2023-03-02T10:47:46.545Z,78.62
2023-03-02T10:49:49.729Z,78.27
2023-03-02T10:51:59.055Z,77.62
2023-03-02T10:54:06.942Z,74.63
2023-03-02T10:56:21.360Z,74.11
2023-03-02T10:58:27.532Z,76.37
2023-03-02T11:00:32.217Z,75.80
2023-03-02T11:02:37.426Z,77.59
2023-03-02T11:04:40.422Z,75.97
2023-03-02T11:06:43.171Z,74.66
2023-03-02T11:08:47.183Z,73.39
2023-03-02T11:10:58.241Z,71.57
2023-03-02T11:13:17.019Z,72.18
2023-03-02T11:15:25.521Z,75.19
2023-03-02T11:17:32.987Z,74.58
2023-03-02T11:19:38.542Z,75.00
2023-03-02T11:21:46.298Z,74.72
2023-03-02T11:24:01.467Z,73.36
2023-03-02T11:26:14.429Z,72.88
2023-03-02T11:28:27.769Z,74.15
2023-03-02T11:30:35.470Z,74.38
2023-03-02T11:32:42.872Z,73.68
2023-03-02T11:34:50.140Z,74.18
2023-03-02T11:37:02.409Z,76.00
2023-03-02T11:39:12.394Z,73.94
2023-03-02T11:41:27.279Z,72.06
2023-03-02T11:43:30.304Z,70.78
2023-03-02T11:45:37.778Z,70.55
2023-03-02T11:47:44.302Z,71.62
2023-03-02T11:49:54.764Z,71.37
2023-03-02T11:52:01.044Z,72.37
2023-03-02T11:54:12.949Z,72.53
2023-03-02T11:56:16.060Z,71.16
2023-03-02T11:58:21.390Z,70.90
2023-03-02T12:00:31.479Z,72.01
2023-03-02T12:02:34.262Z,70.25
2023-03-02T12:04:39.723Z,72.36
2023-03-02T12:06:44.047Z,70.35
2023-03-02T12:08:47.999Z,70.93
2023-03-02T12:11:00.802Z,71.10
2023-03-02T12:13:16.060Z,69.84
2023-03-02T12:15:35.980Z,70.31
2023-03-02T12:17:39.667Z,69.21
2023-03-02T12:19:45.085Z,69.64
2023-03-02T12:21:58.027Z,69.92
2023-03-02T12:24:03.892Z,68.01
2023-03-02T12:26:24.153Z,68.38
2023-03-02T12:28:30.533Z,66.77
2023-03-02T12:30:33.228Z,64.05
2023-03-02T12:32:36.011Z,65.57
2023-03-02T12:34:40.321Z,64.13
2023-03-02T12:36:44.880Z,64.76
2023-03-02T12:39:01.949Z,62.67
2023-03-02T12:41:22.172Z,62.14
2023-03-02T12:43:32.036Z,64.21
2023-03-02T12:45:48.764Z,60.00
2023-03-02T12:47:59.169Z,61.32
2023-03-02T12:50:05.202Z,63.60
2023-03-02T12:52:23.884Z,60.24
2023-03-02T12:54:28.792Z,60.98
2023-03-02T12:56:32.970Z,59.42
2023-03-02T12:58:35.642Z,61.32
2023-03-02T13:00:38.266Z,65.59
2023-03-02T13:02:48.315Z,66.91
2023-03-02T13:04:55.273Z,61.84
2023-03-02T13:06:57.964Z,57.62
2023-03-02T13:09:01.083Z,61.29
2023-03-02T13:11:04.858Z,64.13
2023-03-02T13:13:17.532Z,63.03
2023-03-02T13:15:20.494Z,59.46
2023-03-02T13:17:26.162Z,62.19
2023-03-02T13:19:30.638Z,64.09
2023-03-02T13:21:38.156Z,63.66
2023-03-02T13:23:47.581Z,61.06
2023-03-02T13:25:52.547Z,59.91
2023-03-02T13:27:57.536Z,61.97
2023-03-02T13:30:13.280Z,60.68
2023-03-02T13:32:21.925Z,59.46
2023-03-02T13:34:26.141Z,60.57
2023-03-02T13:36:31.798Z,58.46
2023-03-02T13:38:38.885Z,57.16
2023-03-02T13:40:44.664Z,57.31
2023-03-02T13:42:47.405Z,58.93
2023-03-02T13:44:50.094Z,60.86
2023-03-02T13:46:54.090Z,59.74
2023-03-02T13:49:09.122Z,57.48
2023-03-02T13:51:17.946Z,55.67
2023-03-02T13:53:20.951Z,54.10
2023-03-02T13:55:24.000Z,55.19
2023-03-02T13:57:31.219Z,58.99
2023-03-02T13:59:36.450Z,60.15
2023-03-02T14:01:41.337Z,57.33
2023-03-02T14:03:45.281Z,59.91
2023-03-02T14:05:47.981Z,61.51
2023-03-02T14:07:50.901Z,60.78
2023-03-02T14:09:53.825Z,60.07
2023-03-02T14:11:57.797Z,59.88
2023-03-02T14:14:02.057Z,60.75
2023-03-02T14:16:05.355Z,59.47
2023-03-02T14:18:31.865Z,60.32
2023-03-02T14:20:35.849Z,62.38
2023-03-02T14:22:38.909Z,61.06
2023-03-02T14:24:41.562Z,61.83
2023-03-02T14:26:46.344Z,61.91
2023-03-02T14:28:53.613Z,62.23
2023-03-02T14:31:02.741Z,64.08
2023-03-02T14:33:05.415Z,64.11
2023-03-02T14:35:11.560Z,64.46
2023-03-02T14:37:18.440Z,63.61
2023-03-02T14:39:23.803Z,63.77
2023-03-02T14:41:28.369Z,64.43
2023-03-02T14:43:31.005Z,65.03
2023-03-02T14:45:33.656Z,64.39
2023-03-02T14:47:36.231Z,64.72
2023-03-02T14:49:39.313Z,64.23
2023-03-02T14:51:45.027Z,63.75
2023-03-02T14:53:50.573Z,62.93
2023-03-02T14:55:53.203Z,62.55
2023-03-02T14:57:58.890Z,62.13
2023-03-02T15:00:01.568Z,63.47
2023-03-02T15:02:15.940Z,63.57
2023-03-02T15:04:25.432Z,63.58
2023-03-02T15:06:29.968Z,62.46
2023-03-02T15:08:32.585Z,62.41
2023-03-02T15:10:36.561Z,62.02
2023-03-02T15:12:39.173Z,61.99
2023-03-02T15:14:41.819Z,63.88
2023-03-02T15:16:44.457Z,63.50
2023-03-02T15:18:49.528Z,63.90
2023-03-02T15:20:52.105Z,64.05
2023-03-02T15:22:54.839Z,64.56
2023-03-02T15:24:57.460Z,64.41
2023-03-02T15:27:01.785Z,63.34
2023-03-02T15:29:04.403Z,63.52
2023-03-02T15:31:08.347Z,63.71
2023-03-02T15:33:10.995Z,63.44
2023-03-02T15:35:13.612Z,63.33
2023-03-02T15:37:16.323Z,63.66
2023-03-02T15:39:18.981Z,63.83
2023-03-02T15:41:21.687Z,64.07
2023-03-02T15:43:25.698Z,64.38
2023-03-02T15:45:28.854Z,63.94
2023-03-02T15:47:33.413Z,64.43
2023-03-02T15:49:36.054Z,65.54
2023-03-02T15:51:38.709Z,64.88
2023-03-02T15:53:41.626Z,65.04
2023-03-02T15:55:44.354Z,65.88
2023-03-02T15:57:47.014Z,64.94
2023-03-02T15:59:51.083Z,66.05
2023-03-02T16:01:54.710Z,66.59
2023-03-02T16:04:00.034Z,66.52
2023-03-02T16:06:03.217Z,66.32
2023-03-02T16:08:06.252Z,67.15
2023-03-02T16:10:15.001Z,67.04
2023-03-02T16:12:18.606Z,67.48
2023-03-02T16:14:21.268Z,67.25
2023-03-02T16:16:26.114Z,67.57
2023-03-02T16:18:29.021Z,68.28
2023-03-02T16:20:31.647Z,68.15
2023-03-02T16:22:34.288Z,68.25
2023-03-02T16:24:37.025Z,69.43
2023-03-02T16:26:39.955Z,68.54
2023-03-02T16:28:42.927Z,68.21
2023-03-02T16:30:46.173Z,68.64
2023-03-02T16:32:50.234Z,70.09
2023-03-02T16:34:55.089Z,69.31
2023-03-02T16:36:57.726Z,70.13
2023-03-02T16:39:00.393Z,70.44
2023-03-02T16:41:03.232Z,70.38
2023-03-02T16:43:08.746Z,70.75
2023-03-02T16:45:12.099Z,71.09
2023-03-02T16:47:14.718Z,71.07
2023-03-02T16:49:18.770Z,71.67
2023-03-02T16:51:22.550Z,71.79
2023-03-02T16:53:25.528Z,71.66
2023-03-02T16:55:28.510Z,72.06
2023-03-02T16:57:31.129Z,72.62
2023-03-02T16:59:33.707Z,72.56
2023-03-02T17:01:36.515Z,73.04
2023-03-02T17:03:39.380Z,72.72
2023-03-02T17:05:43.526Z,73.82
2023-03-02T17:07:46.440Z,73.58
2023-03-02T17:09:49.132Z,73.61
2023-03-02T17:11:51.708Z,73.02
2023-03-02T17:13:54.360Z,73.28
2023-03-02T17:15:58.122Z,73.84
2023-03-02T17:18:01.204Z,73.66
2023-03-02T17:20:03.878Z,73.81
2023-03-02T17:22:07.887Z,73.86
2023-03-02T17:24:10.765Z,74.06
2023-03-02T17:26:13.434Z,73.98
2023-03-02T17:28:16.727Z,74.46
2023-03-02T17:30:20.204Z,75.10
2023-03-02T17:32:24.275Z,75.18
2023-03-02T17:34:30.532Z,75.16
2023-03-02T17:36:36.524Z,75.35
2023-03-02T17:38:41.328Z,75.72
2023-03-02T17:40:44.333Z,75.86
2023-03-02T17:42:46.976Z,76.43
2023-03-02T17:44:49.675Z,76.59
2023-03-02T17:46:52.327Z,77.16
2023-03-02T17:48:56.584Z,77.75
2023-03-02T17:50:59.242Z,78.12
2023-03-02T17:53:02.979Z,79.13
2023-03-02T17:55:08.066Z,80.11
2023-03-02T17:57:11.825Z,80.43
2023-03-02T17:59:14.706Z,80.55
2023-03-02T18:01:17.334Z,80.33
2023-03-02T18:03:20.299Z,81.08
2023-03-02T18:05:23.208Z,81.16
2023-03-02T18:07:25.928Z,81.61
2023-03-02T18:09:28.579Z,83.21
2023-03-02T18:11:33.175Z,84.15
2023-03-02T18:13:35.915Z,84.62
2023-03-02T18:15:38.587Z,85.31
2023-03-02T18:17:41.479Z,86.03
2023-03-02T18:19:45.571Z,86.16
2023-03-02T18:21:48.437Z,86.54
2023-03-02T18:23:51.094Z,86.82
2023-03-02T18:25:53.740Z,87.30
2023-03-02T18:27:57.894Z,87.37
2023-03-02T18:30:00.691Z,87.49
2023-03-02T18:32:03.423Z,87.83
2023-03-02T18:34:06.136Z,88.09
2023-03-02T18:36:09.728Z,88.55
2023-03-02T18:38:12.353Z,89.45
2023-03-02T18:40:15.494Z,89.92
2023-03-02T18:42:18.245Z,90.87
2023-03-02T18:44:22.287Z,90.20
2023-03-02T18:46:27.216Z,90.31
2023-03-02T18:48:29.941Z,90.91
2023-03-02T18:50:32.566Z,91.23
2023-03-02T18:52:35.228Z,91.62
2023-03-02T18:54:38.706Z,92.21
2023-03-02T18:56:41.415Z,92.18
2023-03-02T18:58:44.903Z,93.18
2023-03-02T19:00:49.368Z,93.00
2023-03-02T19:02:52.340Z,93.02
2023-03-02T19:04:54.966Z,93.40
2023-03-02T19:07:00.664Z,93.07
2023-03-02T19:09:03.477Z,93.07
2023-03-02T19:11:06.884Z,92.89
2023-03-02T19:13:11.505Z,93.44
2023-03-02T19:15:14.482Z,93.56
2023-03-02T19:17:18.484Z,93.98
2023-03-02T19:19:21.263Z,94.68
2023-03-02T19:21:23.965Z,94.67
2023-03-02T19:23:26.648Z,95.04
2023-03-02T19:25:29.617Z,94.67
2023-03-02T19:27:32.371Z,94.80
2023-03-02T19:29:35.071Z,94.70
2023-03-02T19:31:39.013Z,95.19
2023-03-02T19:33:45.181Z,95.13
2023-03-02T19:35:47.883Z,95.17
2023-03-02T19:37:50.654Z,95.86
2023-03-02T19:39:53.358Z,96.09
2023-03-02T19:41:56.054Z,96.37
2023-03-02T19:43:59.031Z,96.38
2023-03-02T19:46:01.782Z,96.47
2023-03-02T19:48:05.788Z,96.96
2023-03-02T19:50:11.154Z,97.42
2023-03-02T19:52:13.802Z,97.75
2023-03-02T19:54:16.505Z,97.53
2023-03-02T19:56:20.949Z,97.92
2023-03-02T19:58:23.655Z,97.79
2023-03-02T20:00:27.549Z,97.97
2023-03-02T20:02:30.334Z,98.27
2023-03-02T20:04:33.612Z,98.16
2023-03-02T20:06:38.004Z,98.67
2023-03-02T20:08:40.703Z,98.72
2023-03-02T20:10:45.341Z,98.94
2023-03-02T20:12:48.131Z,98.79
2023-03-02T20:14:52.764Z,99.32
2023-03-02T20:16:55.590Z,99.32
2023-03-02T20:19:01.934Z,99.75
2023-03-02T20:21:05.029Z,100.00
2023-03-02T20:23:09.259Z,100.00
2023-03-02T20:25:12.780Z,100.00
2023-03-02T20:27:15.656Z,100.00
2023-03-02T20:29:18.482Z,100.00
2023-03-02T20:31:21.179Z,100.00
2023-03-02T20:33:26.930Z,100.00
2023-03-02T20:35:32.715Z,100.00
2023-03-02T20:37:35.495Z,100.00
2023-03-02T20:39:41.865Z,100.00
2023-03-02T20:41:45.380Z,100.00
2023-03-02T20:43:48.090Z,100.00
2023-03-02T20:45:51.250Z,100.00
2023-03-02T20:47:54.339Z,100.00
2023-03-02T20:49:57.103Z,100.00
2023-03-02T20:52:00.787Z,100.00
2023-03-02T20:54:04.743Z,100.00
2023-03-02T20:56:11.195Z,100.00
2023-03-02T20:58:14.355Z,100.00
2023-03-02T21:00:21.604Z,100.00
2023-03-02T21:02:24.464Z,100.00
2023-03-02T21:04:27.359Z,100.00
2023-03-02T21:06:33.300Z,100.00
2023-03-02T21:08:39.236Z,100.00
2023-03-02T21:10:43.519Z,100.00
2023-03-02T21:12:49.006Z,100.00
2023-03-02T21:14:51.848Z,100.00
2023-03-02T21:16:54.985Z,100.00
2023-03-02T21:18:57.669Z,100.00
2023-03-02T21:21:00.401Z,100.00
2023-03-02T21:23:03.218Z,100.00
2023-03-02T21:25:08.914Z,100.00
2023-03-02T21:27:11.717Z,100.00
2023-03-02T21:29:17.799Z,100.00
2023-03-02T21:31:21.141Z,100.00
2023-03-02T21:33:23.790Z,100.00
2023-03-02T21:35:26.579Z,100.00
2023-03-02T21:37:29.399Z,100.00
2023-03-02T21:39:32.203Z,100.00
2023-03-02T21:41:35.659Z,100.00
2023-03-02T21:43:38.434Z,100.00
2023-03-02T21:45:42.701Z,100.00
2023-03-02T21:47:46.104Z,100.00
2023-03-02T21:49:48.746Z,100.00
2023-03-02T21:51:51.432Z,100.00
2023-03-02T21:53:54.132Z,100.00
2023-03-02T21:55:56.739Z,100.00
2023-03-02T21:57:59.849Z,100.00
2023-03-02T22:00:04.642Z,100.00
2023-03-02T22:02:08.705Z,100.00
2023-03-02T22:04:11.400Z,100.00
2023-03-02T22:06:18.184Z,100.00
2023-03-02T22:08:21.777Z,100.00
2023-03-02T22:10:30.212Z,100.00
2023-03-02T22:12:32.885Z,100.00
2023-03-02T22:14:35.526Z,100.00
2023-03-02T22:16:39.432Z,100.00
2023-03-02T22:18:45.281Z,100.00
2023-03-02T22:20:49.957Z,100.00
2023-03-02T22:22:55.101Z,100.00
2023-03-02T22:24:57.704Z,100.00
2023-03-02T22:27:02.854Z,100.00
2023-03-02T22:29:14.134Z,100.00
2023-03-02T22:31:20.329Z,100.00
2023-03-02T22:33:25.892Z,100.00
2023-03-02T22:35:29.870Z,100.00
2023-03-02T22:37:35.691Z,100.00
2023-03-02T22:39:41.002Z,100.00
2023-03-02T22:41:44.883Z,100.00
2023-03-02T22:43:49.347Z,100.00
2023-03-02T22:45:52.879Z,100.00
2023-03-02T22:47:55.671Z,100.00
2023-03-02T22:50:01.583Z,100.00
2023-03-02T22:52:13.855Z,100.00
2023-03-02T22:54:23.459Z,100.00
2023-03-02T22:56:31.286Z,100.00
2023-03-02T22:58:46.383Z,100.00
2023-03-02T23:00:49.336Z,100.00
2023-03-02T23:02:54.350Z,100.00
2023-03-02T23:04:56.979Z,100.00
2023-03-02T23:07:02.595Z,100.00
2023-03-02T23:09:07.365Z,100.00
2023-03-02T23:11:17.188Z,100.00
2023-03-02T23:13:22.310Z,100.00
2023-03-02T23:15:25.030Z,100.00
2023-03-02T23:17:35.255Z,100.00
2023-03-02T23:19:37.903Z,100.00
2023-03-02T23:21:45.683Z,100.00
2023-03-02T23:23:49.644Z,100.00
2023-03-02T23:25:53.689Z,100.00
2023-03-02T23:27:56.342Z,100.00
2023-03-02T23:29:58.962Z,100.00
2023-03-02T23:32:01.747Z,100.00
2023-03-02T23:34:05.198Z,100.00
2023-03-02T23:36:08.442Z,100.00
2023-03-02T23:38:11.012Z,100.00
2023-03-02T23:40:13.978Z,100.00
2023-03-02T23:42:17.920Z,100.00
2023-03-02T23:44:20.767Z,100.00
2023-03-02T23:46:23.694Z,100.00
2023-03-02T23:48:26.364Z,100.00
2023-03-02T23:50:29.040Z,100.00
2023-03-02T23:52:31.687Z,100.00
2023-03-02T23:54:34.406Z,100.00
2023-03-02T23:56:37.682Z,100.00
2023-03-02T23:58:41.946Z,100.00
